Time;durP1;ratioP1;P1;durP2;ratioP2;P2;SDS_P1;SDS_P2;PMS_P1;PMS_P2;Temp;Humidity;BMP_temperature;BMP_pressure;BME280_temperature;BME280_humidity;BME280_pressure;Samples;Min_cycle;Max_cycle;Signal;HPM_P1;HPM_P2
2022/05/06 00:01:46;;;;;;;24.10;13.15;;;13.60;99.90;;;;;;5014541;28;20083;-74
2022/05/06 00:04:14;;;;;;;21.25;12.55;;;13.50;99.90;;;;;;5014991;28;20022;-74
2022/05/06 00:06:40;;;;;;;22.98;13.35;;;13.60;99.90;;;;;;5014353;28;20029;-73
2022/05/06 00:09:06;;;;;;;22.20;12.93;;;13.50;99.90;;;;;;5032374;28;20057;-74
2022/05/06 00:11:32;;;;;;;28.45;13.02;;;13.50;99.90;;;;;;5014430;28;20096;-74
2022/05/06 00:13:58;;;;;;;28.10;13.05;;;13.50;99.90;;;;;;5032626;28;20022;-74
2022/05/06 00:16:25;;;;;;;24.30;12.77;;;13.50;99.90;;;;;;5014417;28;20084;-74
2022/05/06 00:18:52;;;;;;;19.77;12.73;;;13.50;99.90;;;;;;5032279;28;20143;-74
2022/05/06 00:21:19;;;;;;;22.58;12.40;;;13.50;99.90;;;;;;5032433;28;20471;-74
2022/05/06 00:23:44;;;;;;;24.85;13.45;;;13.50;99.90;;;;;;5014370;28;20496;-74
2022/05/06 00:26:11;;;;;;;21.05;12.65;;;13.50;99.90;;;;;;5014666;28;20022;-74
2022/05/06 00:28:37;;;;;;;22.05;12.35;;;13.50;99.90;;;;;;5031837;28;20034;-74
2022/05/06 00:31:03;;;;;;;20.08;11.80;;;13.50;99.90;;;;;;5014743;28;20025;-74
2022/05/06 00:33:33;;;;;;;24.67;12.85;;;13.50;99.90;;;;;;5014320;28;20074;-74
2022/05/06 00:36:00;;;;;;;21.85;12.77;;;13.50;99.90;;;;;;5016246;28;20029;-74
2022/05/06 00:38:26;;;;;;;20.85;12.75;;;13.50;99.90;;;;;;5035899;28;20471;-74
2022/05/06 00:40:52;;;;;;;26.77;13.73;;;13.50;99.90;;;;;;5017990;28;20029;-74
2022/05/06 00:43:20;;;;;;;23.30;12.60;;;13.40;99.90;;;;;;5018456;28;20029;-73
2022/05/06 00:45:53;;;;;;;24.15;12.40;;;13.50;99.90;;;;;;5018098;28;20120;-74
2022/05/06 00:48:26;;;;;;;25.35;13.48;;;13.40;99.90;;;;;;5036243;28;20056;-73
2022/05/06 00:50:53;;;;;;;24.17;13.30;;;13.40;99.90;;;;;;5018689;28;20108;-74
2022/05/06 00:53:19;;;;;;;22.48;13.05;;;13.40;99.90;;;;;;5018391;28;20041;-74
2022/05/06 00:55:45;;;;;;;24.50;13.85;;;13.40;99.90;;;;;;5017845;28;20524;-74
2022/05/06 00:58:11;;;;;;;21.27;12.82;;;13.40;99.90;;;;;;5018400;28;20065;-74
2022/05/06 01:00:36;;;;;;;22.23;12.82;;;13.30;99.90;;;;;;5017775;28;20033;-74
2022/05/06 01:03:02;;;;;;;18.92;12.35;;;13.30;99.90;;;;;;5018342;28;20057;-74
2022/05/06 01:05:30;;;;;;;22.70;11.77;;;13.30;99.90;;;;;;5035102;28;20377;-74
2022/05/06 01:07:58;;;;;;;26.58;13.85;;;13.40;99.90;;;;;;5018023;28;20033;-73
2022/05/06 01:10:24;;;;;;;23.35;13.13;;;13.40;99.90;;;;;;5018058;28;20025;-74
2022/05/06 01:12:50;;;;;;;29.65;13.18;;;13.30;99.90;;;;;;5035266;28;20108;-74
2022/05/06 01:15:23;;;;;;;24.52;12.35;;;13.40;99.90;;;;;;5017965;28;20365;-74
2022/05/06 01:17:49;;;;;;;24.33;12.77;;;13.30;99.90;;;;;;5035110;28;20026;-73
2022/05/06 01:20:16;;;;;;;19.80;12.05;;;13.30;99.90;;;;;;5035459;28;20029;-73
2022/05/06 01:22:51;;;;;;;23.50;12.52;;;13.30;99.90;;;;;;5017155;28;20053;-74
2022/05/06 01:25:18;;;;;;;23.50;13.20;;;13.30;99.90;;;;;;5035326;28;20477;-74
2022/05/06 01:27:51;;;;;;;20.08;12.15;;;13.30;99.90;;;;;;5017167;28;20025;-74
2022/05/06 01:30:35;;;;;;;24.95;13.60;;;13.30;99.90;;;;;;5035465;28;20029;-74
2022/05/06 01:33:04;;;;;;;24.08;13.02;;;13.30;99.90;;;;;;5035406;28;20455;-74
2022/05/06 01:35:31;;;;;;;21.77;12.43;;;13.30;99.90;;;;;;5017178;28;20021;-74
2022/05/06 01:38:02;;;;;;;24.55;13.43;;;13.20;99.90;;;;;;5035393;28;20071;-74
2022/05/06 01:40:31;;;;;;;23.35;12.75;;;13.30;99.90;;;;;;5017213;28;20482;-76
2022/05/06 01:43:00;;;;;;;22.70;12.48;;;13.30;99.90;;;;;;5017588;28;20026;-74
2022/05/06 01:45:29;;;;;;;25.20;13.10;;;13.30;99.90;;;;;;5017495;28;20060;-74
2022/05/06 01:47:56;;;;;;;24.20;13.50;;;13.30;99.90;;;;;;5016331;28;20040;-74
2022/05/06 01:50:23;;;;;;;20.52;11.82;;;13.30;99.90;;;;;;5034965;28;20022;-74
2022/05/06 01:52:52;;;;;;;21.88;12.43;;;13.40;99.90;;;;;;5016808;28;20540;-74
2022/05/06 01:55:18;;;;;;;23.30;12.18;;;13.30;99.90;;;;;;5017192;28;20032;-74
2022/05/06 01:57:44;;;;;;;25.10;13.77;;;13.40;99.90;;;;;;5016689;28;20026;-74
2022/05/06 02:00:13;;;;;;;23.85;12.48;;;13.30;99.90;;;;;;5017125;28;20025;-74
2022/05/06 02:02:39;;;;;;;21.90;11.98;;;13.40;99.90;;;;;;5034352;28;20026;-74
2022/05/06 02:05:17;;;;;;;22.85;13.15;;;13.30;99.90;;;;;;5034903;28;20038;-74
2022/05/06 02:07:48;;;;;;;24.45;13.13;;;13.40;99.90;;;;;;5016449;28;20030;-74
2022/05/06 02:10:17;;;;;;;22.15;13.43;;;13.30;99.90;;;;;;5034533;28;20457;-74
2022/05/06 02:12:47;;;;;;;24.10;13.45;;;13.30;99.90;;;;;;5016436;28;20026;-74
2022/05/06 02:15:14;;;;;;;24.85;12.90;;;13.30;99.90;;;;;;5017028;28;20482;-74
2022/05/06 02:17:41;;;;;;;25.02;13.05;;;13.30;99.90;;;;;;5016401;28;20026;-74
2022/05/06 02:20:09;;;;;;;22.08;13.15;;;13.30;99.90;;;;;;5034513;28;20124;-74
2022/05/06 02:22:36;;;;;;;26.10;12.60;;;13.30;99.90;;;;;;5015804;28;20495;-74
2022/05/06 02:25:04;;;;;;;22.23;12.80;;;13.30;99.90;;;;;;5016664;28;20030;-74
2022/05/06 02:27:30;;;;;;;22.38;12.75;;;13.30;99.90;;;;;;5016649;28;20025;-74
2022/05/06 02:35:25;;;;;;;22.10;13.20;;;13.30;99.90;;;;;;5034362;28;20044;-74
2022/05/06 02:37:50;;;;;;;22.50;12.70;;;13.30;99.90;;;;;;5033701;28;20273;-74
2022/05/06 02:40:16;;;;;;;22.70;12.13;;;13.30;99.90;;;;;;5016395;28;20029;-74
2022/05/06 02:42:42;;;;;;;22.50;12.52;;;13.30;99.90;;;;;;5015811;28;20083;-74
2022/05/06 02:45:08;;;;;;;20.70;12.07;;;13.20;99.90;;;;;;5016344;28;20059;-74
2022/05/06 02:47:35;;;;;;;23.27;12.70;;;13.30;99.90;;;;;;5015871;28;20497;-74
2022/05/06 02:50:01;;;;;;;22.85;12.48;;;13.30;99.90;;;;;;5033892;28;20033;-74
2022/05/06 02:52:26;;;;;;;28.58;12.88;;;13.30;99.90;;;;;;5034187;28;20037;-74
2022/05/06 02:54:52;;;;;;;22.60;12.48;;;13.30;99.90;;;;;;5033459;28;20546;-76
2022/05/06 02:57:17;;;;;;;23.70;12.55;;;13.30;99.90;;;;;;5016067;28;20037;-77
2022/05/06 02:59:43;;;;;;;24.80;13.05;;;13.30;99.90;;;;;;5028460;28;20459;-76
2022/05/06 03:02:09;;;;;;;24.30;13.60;;;13.30;99.90;;;;;;5025758;28;20102;-77
2022/05/06 03:04:36;;;;;;;21.77;11.82;;;13.30;99.90;;;;;;5033170;28;20366;-78
2022/05/06 03:07:05;;;;;;;20.25;12.07;;;13.30;99.90;;;;;;5017024;28;20030;-78
2022/05/06 03:09:30;;;;;;;23.92;11.85;;;13.30;99.90;;;;;;5032558;28;20044;-78
2022/05/06 03:11:56;;;;;;;21.27;12.60;;;13.30;99.90;;;;;;4998343;28;20030;-75
2022/05/06 03:14:21;;;;;;;25.13;12.52;;;13.30;99.90;;;;;;5014382;28;20029;-76
2022/05/06 03:16:47;;;;;;;22.23;12.65;;;13.40;99.90;;;;;;5013610;28;20109;-76
2022/05/06 03:19:13;;;;;;;22.08;12.43;;;13.30;99.90;;;;;;5013521;28;20026;-76
2022/05/06 03:21:39;;;;;;;25.98;12.93;;;13.20;99.90;;;;;;4996565;28;20054;-75
2022/05/06 03:24:05;;;;;;;22.48;12.25;;;13.30;99.90;;;;;;5013189;28;20026;-76
2022/05/06 03:26:30;;;;;;;24.42;12.45;;;13.30;99.90;;;;;;5013427;28;20036;-76
2022/05/06 03:28:57;;;;;;;21.33;12.63;;;13.30;99.90;;;;;;5014840;28;20411;-77
2022/05/06 03:31:25;;;;;;;22.27;12.45;;;13.30;99.90;;;;;;5033490;28;20048;-76
2022/05/06 03:33:52;;;;;;;25.05;12.68;;;13.30;99.90;;;;;;5029830;28;20373;-76
2022/05/06 03:36:18;;;;;;;26.83;13.23;;;13.30;99.90;;;;;;5025330;28;20025;-75
2022/05/06 03:38:44;;;;;;;22.70;13.68;;;13.30;99.90;;;;;;5020283;28;20030;-74
2022/05/06 03:41:09;;;;;;;24.92;11.98;;;13.30;99.90;;;;;;4996522;28;20026;-76
2022/05/06 03:43:35;;;;;;;23.48;13.68;;;13.20;99.90;;;;;;5013357;28;20506;-76
2022/05/06 03:46:00;;;;;;;22.23;11.85;;;13.20;99.90;;;;;;5012625;28;20367;-75
2022/05/06 03:48:26;;;;;;;20.02;11.80;;;13.20;99.90;;;;;;5030981;28;20040;-75
2022/05/06 03:53:36;;;;;;;27.17;12.15;;;13.20;99.90;;;;;;5022922;28;20037;-76
2022/05/06 03:56:04;;;;;;;22.77;11.95;;;13.20;99.90;;;;;;5013741;28;20034;-75
2022/05/06 03:58:30;;;;;;;24.13;12.93;;;13.30;99.90;;;;;;5013853;28;20041;-75
2022/05/06 04:00:55;;;;;;;21.60;13.02;;;13.20;99.90;;;;;;5013189;28;20034;-75
2022/05/06 04:03:21;;;;;;;22.90;12.88;;;13.30;99.90;;;;;;5013371;28;20099;-75
2022/05/06 04:05:47;;;;;;;22.00;12.25;;;13.30;99.90;;;;;;5013113;28;20406;-76
2022/05/06 04:08:13;;;;;;;20.65;11.95;;;13.20;99.90;;;;;;5012515;28;20034;-76
2022/05/06 04:10:38;;;;;;;24.95;12.07;;;13.20;99.90;;;;;;5012528;28;20500;-77
2022/05/06 04:13:04;;;;;;;23.20;12.75;;;13.10;99.90;;;;;;4996155;28;20049;-76
2022/05/06 04:15:32;;;;;;;24.17;12.98;;;13.10;99.90;;;;;;5013693;28;20029;-76
2022/05/06 04:17:58;;;;;;;20.98;12.02;;;13.10;99.90;;;;;;5013045;28;20022;-76
2022/05/06 04:25:52;;;;;;;22.70;12.55;;;13.10;99.90;;;;;;5013127;28;20053;-76
2022/05/06 04:28:18;;;;;;;20.40;11.93;;;13.00;99.90;;;;;;5013448;28;20038;-77
2022/05/06 04:30:43;;;;;;;21.15;12.40;;;13.00;99.90;;;;;;5011518;28;20113;-77
2022/05/06 04:33:09;;;;;;;19.13;11.60;;;13.00;99.90;;;;;;5012999;28;20437;-76
2022/05/06 04:35:35;;;;;;;17.15;10.43;;;13.00;99.90;;;;;;5011976;28;20034;-78
2022/05/06 04:38:01;;;;;;;21.08;11.07;;;13.00;99.90;;;;;;5012126;28;20037;-78
2022/05/06 04:40:26;;;;;;;17.98;10.07;;;13.00;99.90;;;;;;5013165;28;20034;-78
2022/05/06 04:42:52;;;;;;;20.13;9.95;;;13.10;99.90;;;;;;5011913;28;20463;-78
2022/05/06 04:45:18;;;;;;;17.73;9.55;;;13.10;99.90;;;;;;5013499;28;20026;-78
2022/05/06 04:47:43;;;;;;;14.43;8.52;;;13.10;99.90;;;;;;4995564;28;20030;-78
2022/05/06 04:50:09;;;;;;;12.80;7.38;;;13.20;99.90;;;;;;5013357;28;20115;-78
2022/05/06 04:52:35;;;;;;;16.33;7.80;;;13.20;99.90;;;;;;4996156;28;20034;-77
2022/05/06 04:55:00;;;;;;;13.75;7.50;;;13.20;99.90;;;;;;4995401;28;20528;-78
2022/05/06 04:57:26;;;;;;;12.48;6.90;;;13.20;99.90;;;;;;4995766;28;20080;-78
2022/05/06 04:59:52;;;;;;;14.20;7.63;;;13.30;99.90;;;;;;5012847;28;20040;-78
2022/05/06 05:02:18;;;;;;;11.45;7.20;;;13.20;99.90;;;;;;4996141;28;20026;-78
2022/05/06 05:04:44;;;;;;;10.15;6.50;;;13.20;99.90;;;;;;5012691;28;20026;-79
2022/05/06 05:07:11;;;;;;;13.15;7.10;;;13.20;99.90;;;;;;5013190;28;20030;-78
2022/05/06 05:09:37;;;;;;;11.07;6.50;;;13.20;99.90;;;;;;4995518;28;20030;-78
2022/05/06 05:12:03;;;;;;;12.52;6.47;;;13.30;99.90;;;;;;4995386;28;20032;-78
2022/05/06 05:14:29;;;;;;;9.82;6.18;;;13.20;99.90;;;;;;5013211;28;20026;-78
2022/05/06 05:16:55;;;;;;;14.02;6.70;;;13.30;99.90;;;;;;5011574;28;20520;-78
2022/05/06 05:19:21;;;;;;;11.00;6.15;;;13.30;99.90;;;;;;5012846;28;20034;-78
2022/05/06 05:21:49;;;;;;;11.68;6.22;;;13.30;99.90;;;;;;5012537;28;20510;-78
2022/05/06 05:24:15;;;;;;;14.32;6.78;;;13.30;99.90;;;;;;4998779;28;20479;-77
2022/05/06 05:26:40;;;;;;;10.50;6.32;;;13.30;99.90;;;;;;4998424;28;20084;-82
2022/05/06 05:29:06;;;;;;;8.15;5.53;;;13.30;99.90;;;;;;5015209;28;20041;-78
2022/05/06 05:31:32;;;;;;;12.02;5.75;;;13.30;99.90;;;;;;4999163;28;20022;-77
2022/05/06 05:33:58;;;;;;;9.52;5.97;;;13.30;99.90;;;;;;5015962;28;20052;-77
2022/05/06 05:36:23;;;;;;;10.40;5.80;;;13.30;99.90;;;;;;5016125;28;20026;-78
2022/05/06 05:38:49;;;;;;;11.93;5.72;;;13.30;99.90;;;;;;5015688;28;20041;-78
2022/05/06 05:41:15;;;;;;;10.98;5.80;;;13.30;99.90;;;;;;4998278;28;20417;-78
2022/05/06 05:49:11;;;;;;;11.82;5.88;;;13.30;99.90;;;;;;5015993;28;20105;-78
2022/05/06 05:51:37;;;;;;;9.77;4.90;;;13.30;99.90;;;;;;4998676;28;20030;-78
2022/05/06 05:54:04;;;;;;;8.55;5.15;;;13.30;99.90;;;;;;4997991;28;20502;-76
2022/05/06 05:56:30;;;;;;;10.27;5.40;;;13.30;99.90;;;;;;4998392;28;20419;-76
2022/05/06 05:58:55;;;;;;;8.48;4.53;;;13.30;99.90;;;;;;4997673;28;20037;-77
2022/05/06 06:01:21;;;;;;;8.07;5.10;;;13.30;99.90;;;;;;5015470;28;20394;-76
2022/05/06 06:03:47;;;;;;;17.23;4.95;;;13.40;99.90;;;;;;5015278;28;20447;-77
2022/05/06 06:06:12;;;;;;;9.48;4.97;;;13.40;99.90;;;;;;5014758;28;20459;-78
2022/05/06 06:08:38;;;;;;;9.10;4.40;;;13.40;99.90;;;;;;4998422;28;20044;-78
2022/05/06 06:11:04;;;;;;;7.65;4.68;;;13.40;99.90;;;;;;5014275;28;20471;-78
2022/05/06 06:13:32;;;;;;;11.20;5.25;;;13.40;99.90;;;;;;4998393;28;20129;-78
2022/05/06 06:15:58;;;;;;;8.45;5.00;;;13.40;99.90;;;;;;4997364;28;20061;-78
2022/05/06 06:18:26;;;;;;;11.75;4.88;;;13.40;99.90;;;;;;5013925;28;20049;-76
2022/05/06 06:20:54;;;;;;;9.93;5.28;;;13.40;99.90;;;;;;4996928;28;20037;-75
2022/05/06 06:23:20;;;;;;;9.27;4.82;;;13.40;99.90;;;;;;4997443;28;20050;-75
2022/05/06 06:25:46;;;;;;;8.50;4.65;;;13.40;99.90;;;;;;5014413;28;20026;-76
2022/05/06 06:28:12;;;;;;;10.73;4.78;;;13.50;99.90;;;;;;4997422;28;20044;-76
2022/05/06 06:30:37;;;;;;;7.72;4.90;;;13.40;99.90;;;;;;4997483;28;20112;-75
2022/05/06 06:33:03;;;;;;;9.70;4.68;;;13.50;99.90;;;;;;4996785;28;20386;-77
2022/05/06 06:35:29;;;;;;;10.00;4.80;;;13.40;99.90;;;;;;5014929;28;20352;-76
2022/05/06 06:37:55;;;;;;;8.13;4.50;;;13.50;99.90;;;;;;4996894;28;20499;-76
2022/05/06 06:40:21;;;;;;;11.43;4.80;;;13.50;99.90;;;;;;4997093;28;20390;-76
2022/05/06 06:42:47;;;;;;;13.20;4.97;;;13.50;99.90;;;;;;4996918;28;20026;-78
2022/05/06 06:45:13;;;;;;;9.93;4.43;;;13.60;99.90;;;;;;4997877;28;20026;-77
2022/05/06 06:47:39;;;;;;;7.43;4.38;;;13.60;99.90;;;;;;4997473;28;20026;-77
2022/05/06 06:50:06;;;;;;;7.80;4.90;;;13.60;99.90;;;;;;4996731;28;20121;-76
2022/05/06 06:52:31;;;;;;;10.25;4.93;;;13.60;99.90;;;;;;4997196;28;20038;-76
2022/05/06 06:54:57;;;;;;;21.23;5.75;;;13.60;99.90;;;;;;4996345;28;20113;-77
2022/05/06 06:57:25;;;;;;;14.10;4.70;;;13.70;99.90;;;;;;5014785;28;20022;-76
2022/05/06 06:59:50;;;;;;;15.88;5.38;;;13.70;99.90;;;;;;5014090;28;20022;-77
2022/05/06 07:02:16;;;;;;;22.85;6.00;;;13.70;99.90;;;;;;4996856;28;20383;-76
2022/05/06 07:04:41;;;;;;;11.38;5.05;;;13.70;99.90;;;;;;5013624;28;20084;-76
2022/05/06 07:12:35;;;;;;;32.78;5.43;;;13.80;99.90;;;;;;5014692;28;20044;-76
2022/05/06 07:15:02;;;;;;;13.13;4.13;;;13.80;99.90;;;;;;4996826;28;20110;-77
2022/05/06 07:17:29;;;;;;;8.35;4.63;;;13.80;99.90;;;;;;5014804;28;20180;-78
2022/05/06 07:19:54;;;;;;;6.93;4.72;;;13.90;99.90;;;;;;5014096;28;20030;-78
2022/05/06 07:22:20;;;;;;;8.40;3.95;;;13.90;99.90;;;;;;4996841;28;20509;-78
2022/05/06 07:24:46;;;;;;;9.05;4.18;;;13.90;99.90;;;;;;4997106;28;20034;-78
2022/05/06 07:27:11;;;;;;;11.30;5.22;;;13.90;99.90;;;;;;5014056;28;20060;-78
2022/05/06 07:29:37;;;;;;;8.00;4.60;;;14.00;99.90;;;;;;4996757;28;20034;-78
2022/05/06 07:32:03;;;;;;;6.18;3.92;;;14.00;99.90;;;;;;5013633;28;20053;-77
2022/05/06 07:34:28;;;;;;;7.60;4.38;;;14.10;99.90;;;;;;5013927;28;20030;-76
2022/05/06 07:36:54;;;;;;;8.77;4.55;;;14.00;99.90;;;;;;5013497;28;20462;-77
2022/05/06 07:39:20;;;;;;;7.53;4.53;;;14.00;99.90;;;;;;4996637;28;20363;-77
2022/05/06 07:41:46;;;;;;;9.52;4.47;;;14.00;99.90;;;;;;4996598;28;20032;-77
2022/05/06 07:44:12;;;;;;;8.18;4.20;;;14.10;99.90;;;;;;5013585;28;20123;-78
2022/05/06 07:46:38;;;;;;;8.85;4.18;;;14.10;99.90;;;;;;4995733;28;20021;-77
2022/05/06 07:49:05;;;;;;;7.57;4.13;;;14.20;99.90;;;;;;4995271;28;20084;-77
2022/05/06 07:51:31;;;;;;;8.25;4.65;;;14.20;99.90;;;;;;4996154;28;20049;-77
2022/05/06 07:53:57;;;;;;;10.15;4.72;;;14.20;99.90;;;;;;5013160;28;20367;-78
2022/05/06 07:56:24;;;;;;;11.55;4.50;;;14.20;99.90;;;;;;4996281;28;20022;-77
2022/05/06 07:58:51;;;;;;;9.45;4.47;;;14.30;99.90;;;;;;4995662;28;20034;-78
2022/05/06 08:01:17;;;;;;;7.10;4.53;;;14.30;99.90;;;;;;5013080;28;20160;-76
2022/05/06 08:06:27;;;;;;;9.07;4.25;;;14.50;99.90;;;;;;5013612;28;20044;-76
2022/05/06 08:08:53;;;;;;;7.70;4.35;;;14.60;99.90;;;;;;5011762;28;20030;-77
2022/05/06 08:11:19;;;;;;;6.97;4.55;;;14.60;99.90;;;;;;4996124;28;20474;-76
2022/05/06 08:13:45;;;;;;;6.57;4.05;;;14.60;99.90;;;;;;5012460;28;20037;-76
2022/05/06 08:16:10;;;;;;;7.15;4.05;;;14.60;99.90;;;;;;4995752;28;20030;-76
2022/05/06 08:18:37;;;;;;;10.13;4.22;;;14.70;99.90;;;;;;4996024;28;20403;-76
2022/05/06 08:21:03;;;;;;;8.35;4.57;;;14.70;99.90;;;;;;4995213;28;20034;-76
2022/05/06 08:23:29;;;;;;;10.18;4.55;;;14.80;99.90;;;;;;5013189;28;20030;-76
2022/05/06 08:25:55;;;;;;;10.40;4.05;;;14.80;99.90;;;;;;4995372;28;20451;-76
2022/05/06 08:28:21;;;;;;;6.35;4.30;;;14.80;99.90;;;;;;5013330;28;20467;-76
2022/05/06 08:30:48;;;;;;;9.90;4.43;;;14.90;99.90;;;;;;5011981;28;20081;-77
2022/05/06 08:33:14;;;;;;;7.93;4.20;;;14.90;99.90;;;;;;4995026;28;20060;-76
2022/05/06 08:35:41;;;;;;;8.50;4.30;;;15.00;99.90;;;;;;4995605;28;20025;-78
2022/05/06 08:38:08;;;;;;;8.73;4.43;;;15.00;99.90;;;;;;5013008;28;20052;-76
2022/05/06 08:40:35;;;;;;;8.13;4.50;;;15.10;99.90;;;;;;4995578;28;20022;-76
2022/05/06 08:43:02;;;;;;;6.40;4.25;;;15.10;99.90;;;;;;4995015;28;20033;-76
2022/05/06 08:51:00;;;;;;;7.35;4.57;;;15.30;99.90;;;;;;5012603;28;20044;-76
2022/05/06 08:53:35;;;;;;;7.85;4.30;;;15.40;99.90;;;;;;4995297;28;20033;-76
2022/05/06 08:56:04;;;;;;;6.10;3.95;;;15.40;99.90;;;;;;4995053;28;20054;-76
2022/05/06 08:58:34;;;;;;;8.60;4.25;;;15.40;99.90;;;;;;4999079;28;20038;-76
2022/05/06 09:01:06;;;;;;;8.60;4.40;;;15.50;99.90;;;;;;5005983;28;20048;-76
2022/05/06 09:03:33;;;;;;;10.35;4.13;;;15.60;99.90;;;;;;5018856;28;20025;-75
2022/05/06 09:05:58;;;;;;;7.35;4.38;;;15.60;99.90;;;;;;5035809;28;20025;-75
2022/05/06 09:08:41;;;;;;;6.22;3.90;;;15.70;99.90;;;;;;5018387;28;20040;-75
2022/05/06 09:11:11;;;;;;;7.50;3.85;;;15.70;99.90;;;;;;5026963;28;20387;-78
2022/05/06 09:13:38;;;;;;;8.13;4.15;;;15.70;99.90;;;;;;5016227;28;20032;-77
2022/05/06 09:19:27;;;;;;;6.35;3.42;;;15.90;99.90;;;;;;5023552;28;20393;-78
2022/05/06 09:22:13;;;;;;;6.32;3.95;;;15.90;99.90;;;;;;5014775;28;20056;-77
2022/05/06 09:24:39;;;;;;;7.43;3.53;;;15.90;99.90;;;;;;5018452;28;20026;-77
2022/05/06 09:27:09;;;;;;;6.78;4.15;;;15.90;99.90;;;;;;5017612;28;20091;-77
2022/05/06 09:29:46;;;;;;;7.20;3.83;;;15.90;99.90;;;;;;5016545;28;20033;-75
2022/05/06 09:32:16;;;;;;;8.18;4.13;;;15.90;99.90;;;;;;4999952;28;20125;-76
2022/05/06 09:34:42;;;;;;;7.72;4.05;;;16.00;99.90;;;;;;4998539;28;20065;-76
2022/05/06 09:37:09;;;;;;;7.88;3.67;;;16.00;99.90;;;;;;4997867;28;20025;-76
2022/05/06 09:39:41;;;;;;;7.65;3.83;;;15.90;99.90;;;;;;4998501;28;20529;-77
2022/05/06 09:42:07;;;;;;;7.28;3.78;;;15.90;99.90;;;;;;4997854;28;20117;-77
2022/05/06 09:44:33;;;;;;;5.70;2.92;;;15.90;99.90;;;;;;5014701;28;20033;-77
2022/05/06 09:47:15;;;;;;;5.70;2.97;;;16.00;99.90;;;;;;4998042;28;20064;-78
2022/05/06 09:49:42;;;;;;;5.32;2.85;;;16.20;99.90;;;;;;4998424;28;20045;-76
2022/05/06 09:52:12;;;;;;;6.93;2.88;;;16.20;99.90;;;;;;5029859;28;20072;-76
2022/05/06 09:54:42;;;;;;;5.53;2.85;;;16.20;99.90;;;;;;5015689;28;20037;-76
2022/05/06 09:57:11;;;;;;;6.90;2.72;;;16.20;99.90;;;;;;5013647;28;20505;-77
2022/05/06 09:59:36;;;;;;;5.95;2.92;;;16.20;99.90;;;;;;5008500;28;20026;-78
2022/05/06 10:02:04;;;;;;;6.55;3.70;;;16.10;99.70;;;;;;5034432;28;20538;-77
2022/05/06 10:04:29;;;;;;;8.52;3.42;;;16.10;99.70;;;;;;5014070;28;20108;-76
2022/05/06 10:07:00;;;;;;;7.03;3.65;;;16.10;99.90;;;;;;5025496;28;20116;-77
2022/05/06 10:09:27;;;;;;;7.88;3.30;;;16.20;99.90;;;;;;4999692;28;20557;-77
2022/05/06 10:11:55;;;;;;;9.38;2.90;;;16.30;99.90;;;;;;5008926;28;20025;-75
2022/05/06 10:14:22;;;;;;;9.25;2.92;;;16.30;99.00;;;;;;5012861;28;20021;-75
2022/05/06 10:16:48;;;;;;;6.70;3.97;;;16.30;98.80;;;;;;5029861;28;20022;-75
2022/05/06 10:19:44;;;;;;;6.60;2.72;;;16.30;98.70;;;;;;5004328;28;20471;-77
2022/05/06 10:22:10;;;;;;;6.63;2.90;;;16.30;97.80;;;;;;5012842;28;20049;-77
2022/05/06 10:24:49;;;;;;;5.60;2.88;;;16.40;98.20;;;;;;5000283;28;20168;-76
2022/05/06 10:33:16;;;;;;;6.10;2.10;;;16.70;96.00;;;;;;5028169;28;20040;-79
2022/05/06 10:35:47;;;;;;;8.05;1.70;;;16.80;95.10;;;;;;5031701;28;20104;-79
2022/05/06 10:38:22;;;;;;;4.38;1.67;;;16.90;94.60;;;;;;5014267;28;20056;-80
2022/05/06 10:40:57;;;;;;;4.78;1.80;;;16.80;94.50;;;;;;5030285;28;20026;-80
2022/05/06 10:43:41;;;;;;;4.78;1.88;;;16.90;95.50;;;;;;5035079;28;20484;-78
2022/05/06 10:46:09;;;;;;;3.33;1.92;;;17.00;96.60;;;;;;5018024;28;20029;-79
2022/05/06 10:48:35;;;;;;;2.80;1.63;;;17.00;95.10;;;;;;5016021;28;20034;-81
2022/05/06 10:51:20;;;;;;;3.00;1.48;;;17.10;94.90;;;;;;5016059;28;20039;-83
2022/05/06 10:53:48;;;;;;;3.10;1.15;;;17.10;94.00;;;;;;5017130;28;20037;-80
2022/05/06 10:56:14;;;;;;;2.63;0.90;;;17.20;87.40;;;;;;5016493;28;20032;-81
2022/05/06 10:58:41;;;;;;;2.83;0.90;;;17.30;83.40;;;;;;5016931;28;20025;-81
2022/05/06 11:01:14;;;;;;;2.80;0.80;;;17.40;82.10;;;;;;5015227;28;20025;-81
2022/05/06 11:03:54;;;;;;;1.33;0.80;;;17.50;79.00;;;;;;5007035;28;20040;-80
2022/05/06 11:06:23;;;;;;;3.55;0.80;;;17.60;77.40;;;;;;5000796;28;20036;-79
2022/05/06 11:08:49;;;;;;;3.35;0.85;;;17.60;71.20;;;;;;5013248;28;20120;-81
2022/05/06 11:11:19;;;;;;;1.92;0.70;;;17.70;71.80;;;;;;5008352;28;20080;-79
2022/05/06 11:13:49;;;;;;;4.93;0.80;;;17.80;70.60;;;;;;5013367;28;20038;-80
2022/05/06 11:16:15;;;;;;;2.25;0.88;;;17.80;70.70;;;;;;5027908;28;20036;-80
2022/05/06 11:18:45;;;;;;;4.30;0.75;;;17.90;70.80;;;;;;5006969;28;20033;-78
2022/05/06 11:21:24;;;;;;;1.77;0.80;;;18.00;70.90;;;;;;5015161;28;20034;-79
2022/05/06 11:23:54;;;;;;;1.60;0.73;;;18.00;70.20;;;;;;5004525;28;20049;-77
2022/05/06 11:26:27;;;;;;;2.17;0.80;;;18.10;72.10;;;;;;5016722;28;20032;-85
2022/05/06 11:29:03;;;;;;;1.05;0.50;;;18.10;68.70;;;;;;5000060;28;20029;-79
2022/05/06 11:31:29;;;;;;;5.00;0.90;;;18.30;71.70;;;;;;5015602;28;20065;-81
2022/05/06 11:33:59;;;;;;;1.65;1.02;;;18.30;68.70;;;;;;5003588;28;20053;-79
2022/05/06 11:36:25;;;;;;;4.18;0.90;;;18.40;67.90;;;;;;5013971;28;20045;-79
2022/05/06 11:38:51;;;;;;;3.08;0.90;;;18.40;71.70;;;;;;5016180;28;20029;-80
2022/05/06 11:41:17;;;;;;;4.38;0.75;;;18.50;68.40;;;;;;5011507;28;20112;-80
2022/05/06 11:43:44;;;;;;;2.38;0.88;;;18.50;67.70;;;;;;5012676;28;20121;-79
2022/05/06 11:49:02;;;;;;;3.80;0.88;;;18.70;69.40;;;;;;5018160;28;20458;-79
2022/05/06 11:51:33;;;;;;;1.67;0.70;;;18.80;72.20;;;;;;5024052;28;20475;-82
2022/05/06 11:54:00;;;;;;;2.58;0.70;;;18.70;69.30;;;;;;5009363;28;20022;-85
2022/05/06 11:56:27;;;;;;;3.72;0.80;;;18.70;69.10;;;;;;5033046;28;20079;-83
2022/05/06 11:58:58;;;;;;;2.85;0.98;;;18.70;67.90;;;;;;5001536;28;20462;-78
2022/05/06 12:01:28;;;;;;;2.35;1.58;;;18.80;68.90;;;;;;5013305;28;20029;-83
2022/05/06 12:04:03;;;;;;;3.70;0.88;;;18.90;70.20;;;;;;5010715;28;20510;-79
2022/05/06 12:06:31;;;;;;;4.60;0.82;;;19.00;70.80;;;;;;4999164;28;20042;-80
2022/05/06 12:09:18;;;;;;;2.60;0.70;;;19.00;73.90;;;;;;5027610;28;20117;-79
2022/05/06 12:11:45;;;;;;;1.33;0.70;;;19.20;65.50;;;;;;5003370;28;20030;-79
2022/05/06 12:14:18;;;;;;;2.42;0.75;;;19.20;68.30;;;;;;5025941;28;20053;-80
2022/05/06 12:16:55;;;;;;;2.78;0.70;;;19.20;64.60;;;;;;5014154;28;20030;-79
2022/05/06 12:19:38;;;;;;;0.90;0.60;;;19.30;66.00;;;;;;5020294;28;20065;-79
2022/05/06 12:22:28;;;;;;;1.85;1.20;;;19.30;64.60;;;;;;5001447;28;20046;-80
2022/05/06 12:24:57;;;;;;;3.20;0.77;;;19.50;68.40;;;;;;4936530;29;20467;-78
2022/05/06 12:27:31;;;;;;;1.90;0.80;;;19.60;68.00;;;;;;4935704;29;20105;-78
2022/05/06 12:30:01;;;;;;;2.55;0.68;;;19.70;67.20;;;;;;4936045;29;20078;-76
2022/05/06 12:32:30;;;;;;;1.23;0.90;;;19.80;65.40;;;;;;4938331;29;20476;-77
2022/05/06 12:35:07;;;;;;;1.38;0.60;;;20.00;66.50;;;;;;4940242;29;20050;-76
2022/05/06 12:37:33;;;;;;;3.20;0.90;;;20.30;63.60;;;;;;4939694;29;20393;-76
2022/05/06 12:39:59;;;;;;;1.83;1.10;;;20.40;65.50;;;;;;4933845;29;20034;-76
2022/05/06 12:42:25;;;;;;;2.67;0.55;;;20.50;63.40;;;;;;4935788;29;20065;-76
2022/05/06 12:44:51;;;;;;;1.33;0.70;;;20.70;63.50;;;;;;4939726;29;20047;-76
2022/05/06 12:50:05;;;;;;;0.88;0.55;;;21.10;60.30;;;;;;4942610;29;20054;-84
2022/05/06 12:52:35;;;;;;;3.63;1.40;;;21.20;60.50;;;;;;4940437;29;20042;-79
2022/05/06 12:55:01;;;;;;;3.60;0.70;;;21.30;61.80;;;;;;4939701;29;20034;-77
2022/05/06 12:57:28;;;;;;;2.22;0.60;;;21.30;59.20;;;;;;4939559;29;20108;-76
2022/05/06 12:59:54;;;;;;;2.92;1.00;;;21.40;59.40;;;;;;4955582;28;20042;-78
2022/05/06 13:02:19;;;;;;;2.40;0.65;;;21.60;60.50;;;;;;4994119;28;20042;-78
2022/05/06 13:04:45;;;;;;;2.53;0.80;;;21.80;60.00;;;;;;5033620;28;20148;-78
2022/05/06 13:07:11;;;;;;;1.52;0.63;;;22.00;58.30;;;;;;5029069;28;20018;-79
2022/05/06 13:09:37;;;;;;;1.33;0.70;;;21.90;58.40;;;;;;5008220;28;20028;-77
2022/05/06 13:12:03;;;;;;;3.03;0.63;;;21.90;59.00;;;;;;5011460;28;20026;-78
2022/05/06 13:14:29;;;;;;;1.58;0.65;;;22.10;59.60;;;;;;5017936;28;20116;-76
2022/05/06 13:16:54;;;;;;;0.93;0.57;;;22.20;58.70;;;;;;5030427;28;20113;-75
2022/05/06 13:19:20;;;;;;;3.08;0.70;;;22.60;59.00;;;;;;5005243;28;20029;-75
2022/05/06 13:21:45;;;;;;;1.55;0.80;;;22.60;57.90;;;;;;5006677;28;20057;-77
2022/05/06 13:24:11;;;;;;;3.08;0.75;;;22.80;57.00;;;;;;5030032;28;20075;-76
2022/05/06 13:26:37;;;;;;;1.88;0.80;;;23.30;56.40;;;;;;5001599;28;20026;-75
2022/05/06 13:29:04;;;;;;;2.00;0.73;;;23.80;52.90;;;;;;5012210;28;20176;-82